Ter Streep — ORDJ — position and weather

sailwx.info

Track history (hours):
 
Tides and Currents Weather Stations Pressure Air Temp Water Temp Dewpoint Dewpoint Depression Visibility Wind Speed Wind Dir Waves Ship Positions

Oceanographic research ship Ter Streep (Belgium)

Detailed information on ship capabilities available from University of Delaware's Ocean Information Center.

Last reported at 2017-Feb-24 13:31 UTC. Time now 2017-Feb-24 17:20 UTC.
Position N 51°14' E 002°56'.

Length 50 m; draft 3.4 m.

Type: Ship. MMSI: 205112000.

Date/timePositionNaut miles runAvg speedWind from/ knotsBaromVisibWave heightAir tempDewpointWater temp
2017-Feb-24 13:31N 51°14' E 002°56'0 0.0
2017-Feb-24 12:33N 51°14' E 002°56'0 0.0
2017-Feb-24 11:33N 51°14' E 002°56'0 0.0
2017-Feb-24 10:33N 51°14' E 002°56'0 0.0
2017-Feb-24 09:33N 51°14' E 002°56'0 0.0
2017-Feb-24 08:33N 51°14' E 002°56'0 0.0
2017-Feb-24 07:33N 51°14' E 002°56'0 0.0
2017-Feb-24 06:33N 51°14' E 002°56'0 0.0
2017-Feb-24 05:33N 51°14' E 002°56'0 0.0
2017-Feb-24 04:33N 51°14' E 002°56'0 0.0
2017-Feb-24 03:33N 51°14' E 002°56'0 0.0
2017-Feb-24 02:33N 51°14' E 002°56'0 0.0
2017-Feb-24 01:33N 51°14' E 002°56'0 0.0
2017-Feb-24 00:33N 51°14' E 002°56'0 0.0
2017-Feb-23 23:33N 51°14' E 002°56'0 0.0
2017-Feb-23 22:33N 51°14' E 002°56'0 0.0
2017-Feb-23 21:33N 51°14' E 002°56'0 0.0
2017-Feb-23 20:33N 51°14' E 002°56'0 0.0
2017-Feb-23 19:33N 51°14' E 002°56'0 0.0
2017-Feb-23 18:33N 51°14' E 002°56'0 0.0
2017-Feb-23 17:33N 51°14' E 002°56'0 0.0
2017-Feb-23 16:33N 51°14' E 002°56'0 0.0
2017-Feb-23 15:33N 51°14' E 002°56'0 0.0
2017-Feb-23 14:33N 51°14' E 002°56'0 0.0
2017-Feb-23 13:33N 51°14' E 002°56'0 0.0
2017-Feb-23 12:33N 51°14' E 002°56'0 0.0
2017-Feb-23 11:33N 51°14' E 002°56'0 0.0
2017-Feb-23 10:33N 51°14' E 002°56'0 0.0
2017-Feb-23 09:33N 51°14' E 002°56'0 0.0
2017-Feb-23 08:33N 51°14' E 002°56'0 0.0
2017-Feb-23 07:33N 51°14' E 002°56'0 0.0
2017-Feb-23 06:33N 51°14' E 002°56'0 0.0
2017-Feb-23 05:33N 51°14' E 002°56'0 0.0
2017-Feb-23 04:33N 51°14' E 002°56'0 0.0
2017-Feb-23 03:33N 51°14' E 002°56'0 0.0
2017-Feb-23 02:33N 51°14' E 002°56'0 0.0
2017-Feb-23 01:33N 51°14' E 002°56'0 0.0
2017-Feb-23 00:33N 51°14' E 002°56'0 0.0
2017-Feb-22 23:33N 51°14' E 002°56'0 0.0
2017-Feb-22 22:33N 51°14' E 002°56'0 0.0
2017-Feb-22 21:33N 51°14' E 002°56'0 0.0
2017-Feb-22 20:33N 51°14' E 002°56'0 0.0
2017-Feb-22 19:33N 51°14' E 002°56'0 0.0
2017-Feb-22 18:33N 51°14' E 002°56'0 0.0
2017-Feb-22 17:33N 51°14' E 002°56'0 0.0
2017-Feb-22 16:33N 51°14' E 002°56'0 0.0
2017-Feb-22 15:33N 51°14' E 002°56'0 0.0
2017-Feb-22 14:33N 51°14' E 002°56'0 0.0
2017-Feb-22 13:33N 51°14' E 002°56'0 0.0
2017-Feb-22 12:33N 51°14' E 002°56'0 0.0
2017-Feb-22 11:33N 51°14' E 002°56'0 0.0
2017-Feb-22 10:34N 51°14' E 002°56'0 0.0
2017-Feb-22 09:33N 51°14' E 002°56'0 0.0
2017-Feb-22 08:33N 51°14' E 002°56'0 0.0
2017-Feb-22 07:33N 51°14' E 002°56'0 0.0
2017-Feb-22 06:33N 51°14' E 002°56'0 0.0
2017-Feb-22 05:33N 51°14' E 002°56'0 0.0
2017-Feb-22 04:33N 51°14' E 002°56'0 0.0
2017-Feb-22 03:33N 51°14' E 002°56'0 0.0
2017-Feb-22 02:33N 51°14' E 002°56'0 0.0
2017-Feb-22 01:33N 51°14' E 002°56'0 0.0
2017-Feb-22 00:33N 51°14' E 002°56'0 0.0
2017-Feb-21 23:33N 51°14' E 002°56'0 0.0
2017-Feb-21 22:33N 51°14' E 002°56'0 0.0
2017-Feb-21 21:33N 51°14' E 002°56'0 0.0
2017-Feb-21 20:33N 51°14' E 002°56'0 0.0
2017-Feb-21 19:33N 51°14' E 002°56'0 0.0
2017-Feb-21 18:33N 51°14' E 002°56'0 0.0
2017-Feb-21 17:33N 51°14' E 002°56'0 0.0
2017-Feb-21 16:33N 51°14' E 002°56'0 0.0
2017-Feb-21 15:33N 51°14' E 002°56'1 1.2
2017-Feb-21 14:33N 51°15' E 002°55'10 9.6
2017-Feb-21 13:33N 51°22' E 003°06'6 5.8
2017-Feb-21 12:33N 51°23' E 003°15'1 0.6
2017-Feb-21 11:34N 51°23' E 003°16'0 0.3
2017-Feb-21 10:33N 51°23' E 003°15'1 0.5
2017-Feb-21 09:34N 51°23' E 003°16'10 9.6
2017-Feb-21 08:33N 51°20' E 003°01'8 7.5
2017-Feb-21 07:34N 51°14' E 002°56'0 0.0
2017-Feb-21 06:33N 51°14' E 002°56'0 0.0
2017-Feb-21 05:33N 51°14' E 002°56'0 0.0
2017-Feb-21 04:33N 51°14' E 002°56'0 0.0
2017-Feb-21 03:33N 51°14' E 002°56'0 0.0
2017-Feb-21 02:33N 51°14' E 002°56'0 0.0
2017-Feb-21 01:33N 51°14' E 002°56'0 0.0
2017-Feb-21 00:33N 51°14' E 002°56'0 0.0
2017-Feb-20 23:33N 51°14' E 002°56'0 0.0
2017-Feb-20 22:33N 51°14' E 002°56'0 0.0
2017-Feb-20 21:33N 51°14' E 002°56'0 0.0
2017-Feb-20 20:33N 51°14' E 002°56'0 0.0
2017-Feb-20 19:33N 51°14' E 002°56'0 0.0
2017-Feb-20 18:33N 51°14' E 002°56'0 0.0
2017-Feb-20 17:33N 51°14' E 002°56'0 0.0
2017-Feb-20 16:33N 51°14' E 002°56'0 0.0
2017-Feb-20 15:33N 51°14' E 002°56'0 0.3
2017-Feb-20 14:34N 51°14' E 002°56'8 8.4
2017-Feb-20 13:33N 51°21' E 003°03'5 5.1
2017-Feb-20 12:33N 51°22' E 003°11'1 0.6
2017-Feb-20 11:34N 51°22' E 003°10'1 1.1
2017-Feb-20 10:34N 51°22' E 003°11'3 2.8
2017-Feb-20 09:33N 51°23' E 003°16'9 9.4
2017-Feb-20 08:34N 51°20' E 003°01'8 7.6
2017-Feb-20 07:33N 51°14' E 002°56'0 0.0
2017-Feb-20 06:33N 51°14' E 002°56'  
2017-Feb-17 14:33N 51°16' E 002°54'1111.0
2017-Feb-17 13:33N 51°22' E 003°08'2 2.0
2017-Feb-17 12:33N 51°22' E 003°11'0 0.4
2017-Feb-17 11:33N 51°23' E 003°12'1 0.8
2017-Feb-17 10:33N 51°22' E 003°10'2 2.1
2017-Feb-17 09:33N 51°22' E 003°07'1010.4
2017-Feb-17 08:33N 51°17' E 002°53'4 3.7
2017-Feb-17 07:33N 51°14' E 002°56'0 0.0
2017-Feb-17 06:33N 51°14' E 002°56'0 0.0
2017-Feb-17 05:33N 51°14' E 002°56'0 0.0
2017-Feb-17 04:33N 51°14' E 002°56'0 0.0
2017-Feb-17 03:33N 51°14' E 002°56'0 0.0
2017-Feb-17 02:33N 51°14' E 002°56'0 0.0
2017-Feb-17 01:33N 51°14' E 002°56'0 0.0
2017-Feb-17 00:34N 51°14' E 002°56'0 0.0
2017-Feb-16 23:34N 51°14' E 002°56'0 0.0
2017-Feb-16 22:33N 51°14' E 002°56'0 0.0
2017-Feb-16 21:33N 51°14' E 002°56'0 0.0
2017-Feb-16 20:33N 51°14' E 002°56'0 0.0
2017-Feb-16 19:33N 51°14' E 002°56'0 0.0
2017-Feb-16 18:33N 51°14' E 002°56'0 0.0
2017-Feb-16 17:33N 51°14' E 002°56'0 0.0
2017-Feb-16 16:33N 51°14' E 002°56'0 0.0
2017-Feb-16 15:33N 51°14' E 002°56'0 0.0
2017-Feb-16 14:33N 51°14' E 002°56'7 6.6
2017-Feb-16 13:33N 51°20' E 002°60'9 8.5
2017-Feb-16 12:33N 51°23' E 003°12'2 1.9
2017-Feb-16 11:33N 51°22' E 003°09'2 1.7
2017-Feb-16 10:33N 51°23' E 003°12'0 0.3
2017-Feb-16 09:33N 51°23' E 003°12'1 1.1
2017-Feb-16 08:33N 51°23' E 003°13'2 2.3
2017-Feb-16 07:33N 51°23' E 003°17'1 1.0
2017-Feb-16 06:34N 51°23' E 003°19'1 0.5
2017-Feb-16 05:33N 51°23' E 003°18'1 1.0
2017-Feb-16 04:33N 51°23' E 003°16'0 0.4
2017-Feb-16 03:33N 51°23' E 003°16'5 4.8
2017-Feb-16 02:33N 51°22' E 003°08'4 4.1
2017-Feb-16 01:33N 51°22' E 003°02'2 2.0
2017-Feb-16 00:33N 51°22' E 003°05'0 0.4
2017-Feb-15 23:33N 51°22' E 003°04'1 1.1
2017-Feb-15 22:33N 51°22' E 003°02'4 3.8
2017-Feb-15 21:33N 51°22' E 003°08'5 4.9
2017-Feb-15 20:33N 51°21' E 003°01'4 3.8
2017-Feb-15 19:33N 51°22' E 003°07'10 9.5
2017-Feb-15 18:33N 51°21' E 002°51'5 5.3
2017-Feb-15 17:33N 51°20' E 002°43'2 1.6
2017-Feb-15 16:33N 51°19' E 002°42'2 1.9
2017-Feb-15 15:33N 51°21' E 002°44'3 2.6
2017-Feb-15 14:33N 51°18' E 002°42'1 1.4
2017-Feb-15 13:33N 51°17' E 002°41'4 4.0
2017-Feb-15 12:33N 51°21' E 002°44'5 5.1
2017-Feb-15 11:33N 51°16' E 002°40'4 4.1
2017-Feb-15 10:33N 51°20' E 002°43'2 1.6
2017-Feb-15 09:33N 51°18' E 002°42'6 6.0
2017-Feb-15 08:34N 51°18' E 002°52'5 5.0
2017-Feb-15 07:33N 51°14' E 002°56'0 0.0
2017-Feb-15 06:33N 51°14' E 002°56'0 0.0
2017-Feb-15 05:33N 51°14' E 002°56'0 0.0
2017-Feb-15 04:33N 51°14' E 002°56'0 0.0
2017-Feb-15 03:33N 51°14' E 002°56'0 0.0
2017-Feb-15 02:33N 51°14' E 002°56'0 0.0
2017-Feb-15 01:33N 51°14' E 002°56'0 0.0
2017-Feb-15 00:33N 51°14' E 002°56'0 0.0
2017-Feb-14 23:33N 51°14' E 002°56'0 0.0
2017-Feb-14 22:33N 51°14' E 002°56'0 0.0
2017-Feb-14 21:33N 51°14' E 002°56'0 0.0
2017-Feb-14 20:33N 51°14' E 002°56'0 0.0
2017-Feb-14 19:33N 51°14' E 002°56'0 0.0
2017-Feb-14 18:33N 51°14' E 002°56'0 0.0
2017-Feb-14 17:33N 51°14' E 002°56'0 0.0
2017-Feb-14 16:33N 51°14' E 002°56'0 0.0
2017-Feb-14 15:33N 51°14' E 002°56'2 2.1
2017-Feb-14 14:33N 51°15' E 002°54'9 8.6
2017-Feb-14 13:33N 51°22' E 003°03'  
Track history (hours):
 
Tides and Currents Weather Stations Pressure Air Temp Water Temp Dewpoint Dewpoint Depression Visibility Wind Speed Wind Dir Waves Ship Positions

Oceanographic research ship Ter Streep (Belgium)

Detailed information on ship capabilities available from University of Delaware's Ocean Information Center.

Last reported at 2017-Feb-24 13:31 UTC. Time now 2017-Feb-24 17:20 UTC.
Position N 51°14' E 002°56'.

Length 50 m; draft 3.4 m.

Type: Ship. MMSI: 205112000.

Date/timePositionNaut miles runAvg speedWind from/ knotsBaromVisibWave heightAir tempDewpointWater temp
2017-Feb-24 13:31N 51°14' E 002°56'0 0.0
2017-Feb-24 12:33N 51°14' E 002°56'0 0.0
2017-Feb-24 11:33N 51°14' E 002°56'0 0.0
2017-Feb-24 10:33N 51°14' E 002°56'0 0.0
2017-Feb-24 09:33N 51°14' E 002°56'0 0.0
2017-Feb-24 08:33N 51°14' E 002°56'0 0.0
2017-Feb-24 07:33N 51°14' E 002°56'0 0.0
2017-Feb-24 06:33N 51°14' E 002°56'0 0.0
2017-Feb-24 05:33N 51°14' E 002°56'0 0.0
2017-Feb-24 04:33N 51°14' E 002°56'0 0.0
2017-Feb-24 03:33N 51°14' E 002°56'0 0.0
2017-Feb-24 02:33N 51°14' E 002°56'0 0.0
2017-Feb-24 01:33N 51°14' E 002°56'0 0.0
2017-Feb-24 00:33N 51°14' E 002°56'0 0.0
2017-Feb-23 23:33N 51°14' E 002°56'0 0.0
2017-Feb-23 22:33N 51°14' E 002°56'0 0.0
2017-Feb-23 21:33N 51°14' E 002°56'0 0.0
2017-Feb-23 20:33N 51°14' E 002°56'0 0.0
2017-Feb-23 19:33N 51°14' E 002°56'0 0.0
2017-Feb-23 18:33N 51°14' E 002°56'0 0.0
2017-Feb-23 17:33N 51°14' E 002°56'0 0.0
2017-Feb-23 16:33N 51°14' E 002°56'0 0.0
2017-Feb-23 15:33N 51°14' E 002°56'0 0.0
2017-Feb-23 14:33N 51°14' E 002°56'0 0.0
2017-Feb-23 13:33N 51°14' E 002°56'0 0.0
2017-Feb-23 12:33N 51°14' E 002°56'0 0.0
2017-Feb-23 11:33N 51°14' E 002°56'0 0.0
2017-Feb-23 10:33N 51°14' E 002°56'0 0.0
2017-Feb-23 09:33N 51°14' E 002°56'0 0.0
2017-Feb-23 08:33N 51°14' E 002°56'0 0.0
2017-Feb-23 07:33N 51°14' E 002°56'0 0.0
2017-Feb-23 06:33N 51°14' E 002°56'0 0.0
2017-Feb-23 05:33N 51°14' E 002°56'0 0.0
2017-Feb-23 04:33N 51°14' E 002°56'0 0.0
2017-Feb-23 03:33N 51°14' E 002°56'0 0.0
2017-Feb-23 02:33N 51°14' E 002°56'0 0.0
2017-Feb-23 01:33N 51°14' E 002°56'0 0.0
2017-Feb-23 00:33N 51°14' E 002°56'0 0.0
2017-Feb-22 23:33N 51°14' E 002°56'0 0.0
2017-Feb-22 22:33N 51°14' E 002°56'0 0.0
2017-Feb-22 21:33N 51°14' E 002°56'0 0.0
2017-Feb-22 20:33N 51°14' E 002°56'0 0.0
2017-Feb-22 19:33N 51°14' E 002°56'0 0.0
2017-Feb-22 18:33N 51°14' E 002°56'0 0.0
2017-Feb-22 17:33N 51°14' E 002°56'0 0.0
2017-Feb-22 16:33N 51°14' E 002°56'0 0.0
2017-Feb-22 15:33N 51°14' E 002°56'0 0.0
2017-Feb-22 14:33N 51°14' E 002°56'0 0.0
2017-Feb-22 13:33N 51°14' E 002°56'0 0.0
2017-Feb-22 12:33N 51°14' E 002°56'0 0.0
2017-Feb-22 11:33N 51°14' E 002°56'0 0.0
2017-Feb-22 10:34N 51°14' E 002°56'0 0.0
2017-Feb-22 09:33N 51°14' E 002°56'0 0.0
2017-Feb-22 08:33N 51°14' E 002°56'0 0.0
2017-Feb-22 07:33N 51°14' E 002°56'0 0.0
2017-Feb-22 06:33N 51°14' E 002°56'0 0.0
2017-Feb-22 05:33N 51°14' E 002°56'0 0.0
2017-Feb-22 04:33N 51°14' E 002°56'0 0.0
2017-Feb-22 03:33N 51°14' E 002°56'0 0.0
2017-Feb-22 02:33N 51°14' E 002°56'0 0.0
2017-Feb-22 01:33N 51°14' E 002°56'0 0.0
2017-Feb-22 00:33N 51°14' E 002°56'0 0.0
2017-Feb-21 23:33N 51°14' E 002°56'0 0.0
2017-Feb-21 22:33N 51°14' E 002°56'0 0.0
2017-Feb-21 21:33N 51°14' E 002°56'0 0.0
2017-Feb-21 20:33N 51°14' E 002°56'0 0.0
2017-Feb-21 19:33N 51°14' E 002°56'0 0.0
2017-Feb-21 18:33N 51°14' E 002°56'0 0.0
2017-Feb-21 17:33N 51°14' E 002°56'0 0.0
2017-Feb-21 16:33N 51°14' E 002°56'0 0.0
2017-Feb-21 15:33N 51°14' E 002°56'1 1.2
2017-Feb-21 14:33N 51°15' E 002°55'10 9.6
2017-Feb-21 13:33N 51°22' E 003°06'6 5.8
2017-Feb-21 12:33N 51°23' E 003°15'1 0.6
2017-Feb-21 11:34N 51°23' E 003°16'0 0.3
2017-Feb-21 10:33N 51°23' E 003°15'1 0.5
2017-Feb-21 09:34N 51°23' E 003°16'10 9.6
2017-Feb-21 08:33N 51°20' E 003°01'8 7.5
2017-Feb-21 07:34N 51°14' E 002°56'0 0.0
2017-Feb-21 06:33N 51°14' E 002°56'0 0.0
2017-Feb-21 05:33N 51°14' E 002°56'0 0.0
2017-Feb-21 04:33N 51°14' E 002°56'0 0.0
2017-Feb-21 03:33N 51°14' E 002°56'0 0.0
2017-Feb-21 02:33N 51°14' E 002°56'0 0.0
2017-Feb-21 01:33N 51°14' E 002°56'0 0.0
2017-Feb-21 00:33N 51°14' E 002°56'0 0.0
2017-Feb-20 23:33N 51°14' E 002°56'0 0.0
2017-Feb-20 22:33N 51°14' E 002°56'0 0.0
2017-Feb-20 21:33N 51°14' E 002°56'0 0.0
2017-Feb-20 20:33N 51°14' E 002°56'0 0.0
2017-Feb-20 19:33N 51°14' E 002°56'0 0.0
2017-Feb-20 18:33N 51°14' E 002°56'0 0.0
2017-Feb-20 17:33N 51°14' E 002°56'0 0.0
2017-Feb-20 16:33N 51°14' E 002°56'0 0.0
2017-Feb-20 15:33N 51°14' E 002°56'0 0.3
2017-Feb-20 14:34N 51°14' E 002°56'8 8.4
2017-Feb-20 13:33N 51°21' E 003°03'5 5.1
2017-Feb-20 12:33N 51°22' E 003°11'1 0.6
2017-Feb-20 11:34N 51°22' E 003°10'1 1.1
2017-Feb-20 10:34N 51°22' E 003°11'3 2.8
2017-Feb-20 09:33N 51°23' E 003°16'9 9.4
2017-Feb-20 08:34N 51°20' E 003°01'8 7.6
2017-Feb-20 07:33N 51°14' E 002°56'0 0.0
2017-Feb-20 06:33N 51°14' E 002°56'  
2017-Feb-17 14:33N 51°16' E 002°54'1111.0
2017-Feb-17 13:33N 51°22' E 003°08'2 2.0
2017-Feb-17 12:33N 51°22' E 003°11'0 0.4
2017-Feb-17 11:33N 51°23' E 003°12'1 0.8
2017-Feb-17 10:33N 51°22' E 003°10'2 2.1
2017-Feb-17 09:33N 51°22' E 003°07'1010.4
2017-Feb-17 08:33N 51°17' E 002°53'4 3.7
2017-Feb-17 07:33N 51°14' E 002°56'0 0.0
2017-Feb-17 06:33N 51°14' E 002°56'0 0.0
2017-Feb-17 05:33N 51°14' E 002°56'0 0.0
2017-Feb-17 04:33N 51°14' E 002°56'0 0.0
2017-Feb-17 03:33N 51°14' E 002°56'0 0.0
2017-Feb-17 02:33N 51°14' E 002°56'0 0.0
2017-Feb-17 01:33N 51°14' E 002°56'0 0.0
2017-Feb-17 00:34N 51°14' E 002°56'0 0.0
2017-Feb-16 23:34N 51°14' E 002°56'0 0.0
2017-Feb-16 22:33N 51°14' E 002°56'0 0.0
2017-Feb-16 21:33N 51°14' E 002°56'0 0.0
2017-Feb-16 20:33N 51°14' E 002°56'0 0.0
2017-Feb-16 19:33N 51°14' E 002°56'0 0.0
2017-Feb-16 18:33N 51°14' E 002°56'0 0.0
2017-Feb-16 17:33N 51°14' E 002°56'0 0.0
2017-Feb-16 16:33N 51°14' E 002°56'0 0.0
2017-Feb-16 15:33N 51°14' E 002°56'0 0.0
2017-Feb-16 14:33N 51°14' E 002°56'7 6.6
2017-Feb-16 13:33N 51°20' E 002°60'9 8.5
2017-Feb-16 12:33N 51°23' E 003°12'2 1.9
2017-Feb-16 11:33N 51°22' E 003°09'2 1.7
2017-Feb-16 10:33N 51°23' E 003°12'0 0.3
2017-Feb-16 09:33N 51°23' E 003°12'1 1.1
2017-Feb-16 08:33N 51°23' E 003°13'2 2.3
2017-Feb-16 07:33N 51°23' E 003°17'1 1.0
2017-Feb-16 06:34N 51°23' E 003°19'1 0.5
2017-Feb-16 05:33N 51°23' E 003°18'1 1.0
2017-Feb-16 04:33N 51°23' E 003°16'0 0.4
2017-Feb-16 03:33N 51°23' E 003°16'5 4.8
2017-Feb-16 02:33N 51°22' E 003°08'4 4.1
2017-Feb-16 01:33N 51°22' E 003°02'2 2.0
2017-Feb-16 00:33N 51°22' E 003°05'0 0.4
2017-Feb-15 23:33N 51°22' E 003°04'1 1.1
2017-Feb-15 22:33N 51°22' E 003°02'4 3.8
2017-Feb-15 21:33N 51°22' E 003°08'5 4.9
2017-Feb-15 20:33N 51°21' E 003°01'4 3.8
2017-Feb-15 19:33N 51°22' E 003°07'10 9.5
2017-Feb-15 18:33N 51°21' E 002°51'5 5.3
2017-Feb-15 17:33N 51°20' E 002°43'2 1.6
2017-Feb-15 16:33N 51°19' E 002°42'2 1.9
2017-Feb-15 15:33N 51°21' E 002°44'3 2.6
2017-Feb-15 14:33N 51°18' E 002°42'1 1.4
2017-Feb-15 13:33N 51°17' E 002°41'4 4.0
2017-Feb-15 12:33N 51°21' E 002°44'5 5.1
2017-Feb-15 11:33N 51°16' E 002°40'4 4.1
2017-Feb-15 10:33N 51°20' E 002°43'2 1.6
2017-Feb-15 09:33N 51°18' E 002°42'6 6.0
2017-Feb-15 08:34N 51°18' E 002°52'5 5.0
2017-Feb-15 07:33N 51°14' E 002°56'0 0.0
2017-Feb-15 06:33N 51°14' E 002°56'0 0.0
2017-Feb-15 05:33N 51°14' E 002°56'0 0.0
2017-Feb-15 04:33N 51°14' E 002°56'0 0.0
2017-Feb-15 03:33N 51°14' E 002°56'0 0.0
2017-Feb-15 02:33N 51°14' E 002°56'0 0.0
2017-Feb-15 01:33N 51°14' E 002°56'0 0.0
2017-Feb-15 00:33N 51°14' E 002°56'0 0.0
2017-Feb-14 23:33N 51°14' E 002°56'0 0.0
2017-Feb-14 22:33N 51°14' E 002°56'0 0.0
2017-Feb-14 21:33N 51°14' E 002°56'0 0.0
2017-Feb-14 20:33N 51°14' E 002°56'0 0.0
2017-Feb-14 19:33N 51°14' E 002°56'0 0.0
2017-Feb-14 18:33N 51°14' E 002°56'0 0.0
2017-Feb-14 17:33N 51°14' E 002°56'0 0.0
2017-Feb-14 16:33N 51°14' E 002°56'0 0.0
2017-Feb-14 15:33N 51°14' E 002°56'2 2.1
2017-Feb-14 14:33N 51°15' E 002°54'9 8.6
2017-Feb-14 13:33N 51°22' E 003°03'  

Dump ship's entire track history